Latest Weather Observations for Cape Sorell

IDT60801

Issued at 11:02 am EDT Sunday 11 December 2016 (issued every 30 minutes, with the page automatically refreshed every 10 minutes)

About weather observations | Map of weather stations | Latest weather observations for TAS | Other Formats
Station Details ID: 097000 Name: CAPE SORELL Lat: -42.20 Lon: 145.17 Height: 19.3 m
Data from the previous 72 hours. | See also: Recent months at Cape Sorell
Date/Time
EDT
Temp
°C
App
Temp
°C
Dew
Point
°C
Rel
Hum
%
Delta-T
°C
Wind Press
QNH
hPa
Press
MSL
hPa
Rain since
9am
mm
Dir  Spd
km/h
Gust
km/h
Spd
kts
Gust
kts
11/11:00am 16.0 14.2 10.7 71 2.8 WSW 11 13 6 7 1024.0 1024.0 0.2
11/10:30am 15.5 13.1 10.1 70 2.8 WSW 13 17 7 9 1024.0 1024.0 0.2
11/10:00am 15.4 13.9 10.4 72 2.6 WSW 9 11 5 6 1023.9 1023.9 0.2
11/09:30am 15.2 14.4 11.0 76 2.2 SW 6 9 3 5 1023.7 1023.7 0.2
11/09:00am 14.7 13.3 10.9 78 2.0 SW 9 11 5 6 1023.4 1023.4 0.6
11/08:30am 14.4 13.1 11.2 81 1.7 SW 9 11 5 6 1023.3 1023.3 0.6
11/08:00am 14.1 12.8 11.3 83 1.5 SSW 9 11 5 6 1023.1 1023.1 0.6
11/07:30am 13.0 10.3 10.5 85 1.3 SW 15 17 8 9 1022.7 1022.7 0.6
11/07:00am 12.6 9.1 10.3 86 1.2 SW 19 24 10 13 1022.5 1022.5 0.6
11/06:30am 12.4 8.9 10.1 86 1.2 SW 19 22 10 12 1022.1 1022.1 0.6
11/06:00am 12.4 8.9 10.1 86 1.2 SW 19 20 10 11 1021.7 1021.7 0.6
11/05:30am 12.4 8.7 10.1 86 1.2 WSW 20 26 11 14 1021.4 1021.4 0.6
11/05:00am 12.3 8.1 9.9 85 1.2 SW 22 26 12 14 1021.0 1021.0 0.6
11/04:30am 12.7 9.9 10.1 84 1.3 WSW 15 17 8 9 1020.8 1020.8 0.6
11/04:00am 12.5 9.3 9.9 84 1.3 WSW 17 20 9 11 1020.9 1020.9 0.6
11/03:30am 12.2 8.9 9.6 84 1.3 WSW 17 20 9 11 1020.8 1020.8 0.6
11/03:00am 12.4 8.6 9.8 84 1.3 WSW 20 26 11 14 1020.8 1020.8 0.6
11/02:30am 12.4 7.8 9.6 83 1.4 SW 24 30 13 16 1020.9 1020.9 0.6
11/02:00am 12.7 7.8 9.9 83 1.4 SW 26 30 14 16 1020.9 1020.9 0.6
11/01:30am 12.6 7.3 9.8 83 1.4 WSW 28 32 15 17 1020.9 1020.9 0.6
11/01:00am 12.6 7.6 9.6 82 1.5 WSW 26 28 14 15 1020.9 1020.9 0.6
11/12:30am 12.7 6.6 9.7 82 1.5 WSW 32 35 17 19 1020.6 1020.6 0.6
11/12:00am 12.8 7.8 9.6 81 1.6 WSW 26 32 14 17 1020.7 1020.7 0.6
 
Date/Time
EDT
Temp
°C
App
Temp
°C
Dew
Point
°C
Rel
Hum
%
Delta-T
°C
Wind Press
QNH
hPa
Press
MSL
hPa
Rain since
9am
mm
Dir  Spd
km/h
Gust
km/h
Spd
kts
Gust
kts
10/11:30pm 12.6 7.5 9.2 80 1.7 WSW 26 32 14 17 1020.7 1020.7 0.6
10/11:00pm 12.7 7.6 9.3 80 1.7 WSW 26 32 14 17 1020.9 1020.9 0.6
10/10:30pm 12.7 7.6 9.2 79 1.8 WSW 26 32 14 17 1021.0 1021.0 0.6
10/10:00pm 12.3 7.4 8.6 78 1.8 WSW 24 32 13 17 1021.0 1021.0 0.6
10/09:30pm 12.5 6.9 8.8 78 1.9 WSW 28 33 15 18 1020.9 1020.9 0.6
10/09:00pm 12.7 6.8 9.0 78 1.9 WSW 30 37 16 20 1020.6 1020.6 0.6
10/08:30pm 12.6 7.4 8.7 77 1.9 W 26 39 14 21 1020.4 1020.4 0.6
10/08:00pm 12.8 8.0 8.7 76 2.0 W 24 33 13 18 1020.2 1020.1 0.6
10/07:30pm 12.8 7.6 8.7 76 2.1 W 26 33 14 18 1020.0 1019.9 0.6
10/07:00pm 13.4 9.7 9.3 76 2.1 W 19 26 10 14 1019.8 1019.7 0.6
10/06:30pm 13.8 11.0 10.0 78 2.0 W 15 20 8 11 1019.5 1019.4 0.6
10/06:00pm 12.7 9.7 9.3 80 1.7 W 15 20 8 11 1019.4 1019.3 0.6
10/05:30pm 13.4 9.7 10.0 80 1.8 WNW 20 32 11 17 1019.6 1019.5 0.6
10/05:00pm 12.6 9.0 9.8 83 1.4 WNW 19 24 10 13 1019.8 1019.7 0.6
10/04:34pm 12.1 6.5 8.9 81 1.6 W 28 52 15 28 1019.5 1019.4 0.6
10/04:30pm 13.2 9.5 10.2 82 1.6 W 20 32 11 17 1020.0 1019.9 0.6
10/04:00pm 12.0 5.7 9.0 82 1.5 W 32 41 17 22 1020.1 1020.0 0.6
10/03:30pm 13.1 8.9 9.7 80 1.7 WNW 22 33 12 18 1020.2 1020.1 0.6
10/03:00pm 14.6 10.5 10.2 75 2.3 NW 22 32 12 17 1020.3 1020.3 0.4
10/02:30pm 15.0 10.8 11.0 77 2.1 WNW 24 32 13 17 1020.4 1020.4 0.4
10/02:00pm 14.4 9.4 11.0 80 1.8 WNW 28 37 15 20 1020.4 1020.4 0.4
10/01:30pm 12.9 7.9 9.7 81 1.6 W 26 35 14 19 1020.4 1020.4 0.4
10/01:00pm 13.9 9.7 11.2 84 1.4 WNW 24 32 13 17 1020.4 1020.4 0.4
10/12:30pm 12.7 6.7 10.2 85 1.3 W 32 43 17 23 1020.6 1020.6 0.4
10/12:00pm 14.0 9.6 11.7 86 1.2 WNW 26 33 14 18 1020.6 1020.6 0.4
10/11:30am 12.7 9.2 10.8 88 1.0 NW 20 28 11 15 1020.6 1020.6 0.4
10/11:00am 13.2 10.3 11.1 87 1.1 WNW 17 24 9 13 1020.6 1020.6 0.4
10/10:30am 12.0 8.5 10.1 88 1.0 W 19 26 10 14 1020.6 1020.6 0.4
10/10:00am 11.9 7.7 9.6 86 1.2 W 22 37 12 20 1020.6 1020.6 0.2
10/09:30am 12.6 10.3 10.5 87 1.1 W 13 17 7 9 1020.7 1020.7 0.0
10/09:00am 12.0 7.0 9.7 86 1.2 WNW 26 35 14 19 1020.5 1020.5 1.2
10/08:30am 12.0 7.8 9.9 87 1.1 W 22 32 12 17 1019.8 1019.7 1.2
10/08:00am 11.9 7.0 10.0 88 1.0 W 26 35 14 19 1019.5 1019.4 1.2
10/07:30am 11.5 7.3 9.8 89 0.9 W 22 32 12 17 1019.4 1019.3 1.2
10/07:00am 11.2 6.5 9.3 88 0.9 W 24 35 13 19 1019.1 1019.0 1.0
10/06:30am 11.3 7.9 9.2 87 1.1 W 17 22 9 12 1018.8 1018.7 0.6
10/06:00am 11.1 7.6 8.8 86 1.1 WNW 17 22 9 12 1018.5 1018.4 0.6
10/05:30am 11.1 7.6 8.8 86 1.1 W 17 22 9 12 1018.3 1018.2 0.6
10/05:00am 11.4 4.8 8.6 83 1.4 WSW 33 41 18 22 1018.0 1017.9 0.4
10/04:30am 11.9 7.7 8.4 79 1.7 WNW 20 30 11 16 1017.9 1017.8 0.4
10/04:00am 11.7 6.7 8.2 79 1.7 WNW 24 30 13 16 1017.9 1017.8 0.4
10/03:30am 11.3 6.2 7.6 78 1.8 WNW 24 30 13 16 1018.0 1017.9 0.4
10/03:00am 11.3 6.1 7.4 77 1.9 WNW 24 33 13 18 1017.9 1017.8 0.4
10/02:30am 11.7 7.8 7.2 74 2.2 W 17 26 9 14 1017.9 1017.8 0.4
10/02:00am 11.7 7.2 7.0 73 2.2 W 20 32 11 17 1018.1 1018.0 0.4
10/01:30am 12.0 7.8 7.3 73 2.3 W 19 24 10 13 1018.4 1018.3 0.4
10/01:00am 11.9 7.1 7.2 73 2.3 WSW 22 30 12 16 1018.4 1018.3 0.4
10/12:30am 11.8 6.9 7.1 73 2.3 W 22 28 12 15 1018.4 1018.3 0.4
10/12:00am 11.7 6.8 7.0 73 2.2 WSW 22 28 12 15 1018.6 1018.5 0.4
 
Date/Time
EDT
Temp
°C
App
Temp
°C
Dew
Point
°C
Rel
Hum
%
Delta-T
°C
Wind Press
QNH
hPa
Press
MSL
hPa
Rain since
9am
mm
Dir  Spd
km/h
Gust
km/h
Spd
kts
Gust
kts
09/11:30pm 11.6 6.3 6.9 73 2.2 WSW 24 30 13 16 1018.5 1018.4 0.4
09/11:00pm 11.3 6.0 6.6 73 2.2 WSW 24 30 13 16 1018.4 1018.3 0.4
09/10:30pm 11.3 5.6 6.6 73 2.2 SW 26 32 14 17 1018.3 1018.2 0.4
09/10:00pm 11.4 5.3 6.7 73 2.2 SW 28 32 15 17 1018.3 1018.2 0.4
09/09:30pm 11.2 5.8 6.5 73 2.2 SW 24 30 13 16 1018.3 1018.2 0.4
09/09:00pm 11.3 4.5 6.8 74 2.1 SW 32 35 17 19 1017.8 1017.7 0.4
09/08:30pm 11.2 5.9 6.7 74 2.1 SW 24 33 13 18 1017.7 1017.6 0.4
09/08:00pm 11.2 6.2 6.5 73 2.2 SW 22 28 12 15 1017.7 1017.6 0.4
09/07:30pm 11.3 5.1 6.2 71 2.4 SW 28 33 15 18 1017.2 1017.1 0.4
09/07:00pm 12.1 5.7 7.0 71 2.4 SW 30 37 16 20 1016.9 1016.8 0.4
09/06:30pm 11.8 4.4 6.9 72 2.3 SW 35 43 19 23 1016.5 1016.4 0.4
09/06:00pm 12.0 4.5 6.5 69 2.6 SW 35 41 19 22 1016.0 1015.9 0.4
09/05:30pm 12.2 5.7 6.3 67 2.8 SW 30 35 16 19 1015.9 1015.8 0.4
09/05:00pm 12.6 5.6 6.0 64 3.1 SW 32 39 17 21 1015.6 1015.6 0.4
09/04:30pm 14.1 6.7 6.7 61 3.6 SW 35 43 19 23 1015.3 1015.3 0.4
09/04:00pm 13.1 5.3 6.7 65 3.1 SW 37 44 20 24 1015.2 1015.2 0.4
09/03:30pm 14.0 5.9 6.8 62 3.5 SW 39 48 21 26 1014.9 1014.9 0.4
09/03:00pm 12.4 4.2 6.5 67 2.8 SW 39 50 21 27 1014.6 1014.6 0.4
09/02:30pm 12.6 4.3 6.2 65 3.0 SW 39 46 21 25 1014.2 1014.2 0.4
09/02:00pm 13.1 5.8 7.1 67 2.9 SW 35 46 19 25 1014.0 1014.0 0.4
09/01:30pm 13.7 5.9 8.1 69 2.8 SW 39 44 21 24 1014.0 1014.0 0.4
09/01:00pm 13.3 5.0 7.7 69 2.8 SW 41 50 22 27 1013.7 1013.7 0.4
09/12:30pm 13.0 4.6 7.2 68 2.8 SW 41 48 22 26 1013.4 1013.4 0.4
09/12:00pm 12.5 3.1 7.2 70 2.6 SSW 46 56 25 30 1012.8 1012.8 0.4
09/11:30am 11.4 2.0 7.1 75 2.1 SW 46 59 25 32 1012.6 1012.6 0.4
09/11:00am 9.8 1.2 6.3 79 1.6 SW 41 48 22 26 1012.2 1012.2 0.4
09/10:40am 11.6 2.9 6.1 69 2.6 SW 41 63 22 34 1011.6 1011.6 0.2
09/10:30am 11.8 3.5 6.3 69 2.6 SW 39 46 21 25 1011.9 1011.9 0.2
09/10:00am 11.1 1.2 6.6 74 2.1 SW 48 56 26 30 1011.2 1011.2 0.2
09/09:30am 10.3 1.8 7.0 80 1.6 SSW 41 46 22 25 1010.9 1010.9 0.2
09/09:00am 9.6 -1.4 5.2 74 2.0 SW 52 67 28 36 1010.0 1010.0 2.6
09/08:30am 10.8 0.5 6.7 76 1.9 SW 50 61 27 33 1009.7 1009.7 2.6
09/08:18am 10.1 1.5 6.3 77 1.8 SSW 41 65 22 35 1009.1 1009.1 2.6
09/08:00am 10.0 0.1 6.5 79 1.6 SSW 48 63 26 34 1009.2 1009.2 2.6
09/07:38am 8.6 -2.0 5.0 78 1.6 SSW 50 69 27 37 1008.7 1008.7 2.6
09/07:30am 9.1 -2.3 4.9 75 1.9 SSW 54 69 29 37 1008.4 1008.4 2.4
09/07:00am 10.4 0.6 5.4 71 2.3 SSW 46 56 25 30 1007.6 1007.6 2.4
09/06:30am 10.6 -0.6 5.8 72 2.2 SW 54 61 29 33 1006.7 1006.7 2.4
09/06:00am 10.3 -1.5 5.7 73 2.1 SW 57 65 31 35 1006.1 1006.1 2.4
09/05:30am 10.2 -1.5 6.0 75 1.9 SSW 57 72 31 39 1005.0 1005.0 2.4
09/05:00am 9.8 -2.7 6.2 78 1.7 SW 61 74 33 40 1004.7 1004.7 2.4
09/04:30am 9.5 -1.3 6.2 80 1.5 SW 52 61 28 33 1004.1 1004.1 2.4
09/04:09am 9.5 -2.2 6.0 79 1.6 SW 57 82 31 44 1003.3 1003.3 2.4
09/04:00am 9.1 -1.0 5.8 80 1.5 SSW 48 56 26 30 1003.7 1003.7 2.4
09/03:49am 8.7 -3.6 5.3 79 1.5 SSW 59 74 32 40 1003.7 1003.7 2.4
09/03:36am 9.3 -2.1 5.1 75 1.9 SSW 54 78 29 42 1002.7 1002.7 2.2
09/03:34am 10.3 -0.1 5.9 74 2.0 SSW 50 74 27 40 1003.1 1003.1 2.2
09/03:30am 10.5 0.1 5.9 73 2.1 SSW 50 63 27 34 1003.4 1003.4 2.2
09/03:00am 10.2 -2.1 5.2 71 2.3 SW 59 72 32 39 1002.8 1002.8 2.2
09/02:30am 10.2 -2.1 5.0 70 2.4 SW 59 72 32 39 1002.3 1002.3 2.2
09/02:00am 10.5 -2.1 5.7 72 2.2 SW 61 72 33 39 1002.0 1002.0 2.2
09/01:30am 10.5 -2.3 6.5 76 1.9 SW 63 76 34 41 1001.5 1001.5 2.2
09/01:00am 10.4 -3.3 7.5 82 1.4 SSW 69 80 37 43 1000.9 1000.9 2.2
09/12:33am 10.5 -1.5 8.1 85 1.2 SSW 61 98 33 53 1000.4 1000.4 2.2
09/12:30am 10.7 -1.7 8.3 85 1.2 SSW 63 76 34 41 1000.7 1000.7 2.2
09/12:00am 10.3 -2.5 8.1 86 1.1 SSW 65 80 35 43 999.4 999.4 2.2
 
Date/Time
EDT
Temp
°C
App
Temp
°C
Dew
Point
°C
Rel
Hum
%
Delta-T
°C
Wind Press
QNH
hPa
Press
MSL
hPa
Rain since
9am
mm
Dir  Spd
km/h
Gust
km/h
Spd
kts
Gust
kts
08/11:46pm 10.7 -2.3 8.6 87 1.0 SW 67 85 36 46 999.1 999.1 2.2
08/11:30pm 10.1 -2.6 8.4 89 0.8 SW 65 80 35 43 998.7 998.7 2.2
08/11:07pm 10.3 -2.3 8.7 90 0.8 SSW 65 83 35 45 998.1 998.1 2.2
08/11:00pm 10.0 -3.5 8.3 89 0.8 SW 69 83 37 45 997.7 997.7 2.0
08/10:30pm 10.4 -3.2 8.8 90 0.8 SW 70 83 38 45 997.2 997.2 1.8
08/10:00pm 10.1 -3.6 8.4 89 0.8 SW 70 85 38 46 996.5 996.5 1.6
08/09:30pm 10.8 -2.5 9.1 89 0.8 SW 69 83 37 45 995.3 995.3 1.4
08/09:23pm 10.9 -2.4 9.2 89 0.8 SW 69 89 37 48 995.1 995.1 1.4
08/09:00pm 11.0 -3.6 9.3 89 0.9 SW 76 89 41 48 994.0 994.0 1.4
08/08:30pm 11.5 -2.9 9.8 89 0.9 SW 76 98 41 53 992.7 992.7 1.2
08/08:06pm 11.7 -2.0 9.8 88 1.0 SW 72 91 39 49 991.5 991.5 1.0
08/08:00pm 11.7 -3.2 9.6 87 1.1 SW 78 95 42 51 991.2 991.2 1.0
08/07:55pm 11.8 -3.4 9.7 87 1.1 SW 80 96 43 52 990.8 990.8 1.0
08/07:30pm 12.3 -2.9 9.7 84 1.3 WSW 80 100 43 54 988.6 988.6 1.0
08/07:29pm 12.5 -2.3 9.9 84 1.3 WSW 78 100 42 54 989.2 989.2 1.0
08/07:00pm 13.1 -1.9 10.5 84 1.4 WSW 80 98 43 53 987.1 987.1 1.0
08/06:30pm 13.8 1.0 10.8 82 1.6 WSW 69 95 37 51 985.0 985.0 1.0
08/06:27pm 14.0 2.0 11.0 82 1.6 WSW 65 89 35 48 984.6 984.6 1.0
08/06:25pm 14.0 2.0 11.0 82 1.6 W 65 83 35 45 984.3 984.3 1.0
08/06:00pm 13.3 1.3 9.7 79 1.9 WNW 63 89 34 48 983.7 983.7 1.0
08/05:30pm 13.9 1.7 10.5 80 1.8 W 65 87 35 47 983.1 983.1 1.0
08/05:18pm 14.6 5.2 11.4 81 1.7 W 52 78 28 42 982.6 982.6 1.0
08/05:14pm 14.4 5.3 11.2 81 1.7 WNW 50 67 27 36 983.0 983.0 1.0
08/05:03pm 14.9 8.8 11.9 82 1.6 NW 35 56 19 30 983.4 983.4 1.0
08/05:00pm 14.8 7.6 11.8 82 1.6 NW 41 57 22 31 983.3 983.3 1.0
08/04:38pm 14.6 3.5 11.7 83 1.6 NNW 61 83 33 45 982.1 982.1 1.0
08/04:30pm 13.9 2.6 10.9 82 1.6 NNW 61 83 33 45 981.0 981.0 1.0
08/04:00pm 14.2 4.2 10.6 79 1.9 NNW 54 76 29 41 982.0 982.0 1.0
08/03:30pm 15.1 2.8 11.3 78 2.0 NNW 67 100 36 54 981.7 981.7 1.0
08/03:00pm 14.9 2.8 12.0 83 1.6 N 67 85 36 46 981.6 981.6 1.0
08/02:38pm 14.1 2.3 10.5 79 1.9 N 63 82 34 44 982.7 982.7 0.8
08/02:30pm 14.7 2.3 10.9 78 2.0 N 67 85 36 46 982.7 982.7 0.8
08/02:01pm 15.1 3.3 10.3 73 2.5 N 63 83 34 45 983.4 983.4 0.8
08/02:00pm 15.1 3.6 10.3 73 2.6 N 61 78 33 42 983.4 983.4 0.8
08/01:33pm 15.5 4.4 10.1 70 2.8 N 59 80 32 43 984.0 984.0 0.8
08/01:30pm 15.6 4.9 10.2 70 2.8 N 57 69 31 37 984.4 984.4 0.8
08/01:00pm 15.7 5.7 10.7 72 2.7 NNW 54 70 29 38 985.4 985.4 0.8
08/12:47pm 15.5 4.1 10.5 72 2.6 N 61 82 33 44 985.8 985.8 0.8
08/12:30pm 15.7 5.2 10.9 73 2.6 N 57 74 31 40 986.1 986.1 0.8
08/12:00pm 16.1 7.1 12.7 80 1.9 NNW 52 72 28 39 987.0 987.0 0.6
08/11:30am 15.5 6.2 13.2 86 1.3 NNW 54 74 29 40 986.3 986.3 0.6

Other Formats:

Comma delimited format used in spreadsheet applications
http://www.bom.gov.au/fwo/IDT60801/IDT60801.94974.axf

JavaScript Object Notation format (JSON) in row-major order
http://www.bom.gov.au/fwo/IDT60801/IDT60801.94974.json